Mossville, Arkansas
Current Conditions -  °F | °C
As of 9:53 AM on Thursday 30 Oct 2014 (Local Time) from KHRO Reporting Station
Clear Clear  
Wind Chill: 53°   Ceiling: Unl
Heat Index: 53°   Visibility: 10mi
Dew Point: 44°   Wind: 5mph
Humidity: 71%   Direction: 130°SE
Pressure: 30.12"   Gusts: NA
Location:  36.0047°N, 93.218°W
Report Text: KHRO 301453Z AUTO 13004KT 10SM CLR 12/07 A3012 RMK AO2 SLP200 T01170067 58001
Loading
Personal Weather Stations






























Interactive Weather Map
Tropical Storm Tracking
New forecast layout! Learn more

10-Day Weather Forecast

Advertisements
Track Severe Weather on mobile